sensor_id;sensor_type;location;lat;lon;timestamp;P1;durP1;ratioP1;P2;durP2;ratioP2
22677;SDS011;26259;50.214;18.620;2023-03-08T00:00:36;34.27;;;19.93;;
22677;SDS011;26259;50.214;18.620;2023-03-08T00:03:03;31.20;;;20.17;;
22677;SDS011;26259;50.214;18.620;2023-03-08T00:05:28;36.33;;;20.53;;
22677;SDS011;26259;50.214;18.620;2023-03-08T00:07:54;42.73;;;24.37;;
22677;SDS011;26259;50.214;18.620;2023-03-08T00:10:20;46.10;;;24.20;;
22677;SDS011;26259;50.214;18.620;2023-03-08T00:12:46;48.90;;;25.17;;
22677;SDS011;26259;50.214;18.620;2023-03-08T00:15:12;45.20;;;25.97;;
22677;SDS011;26259;50.214;18.620;2023-03-08T00:17:38;47.40;;;25.97;;
22677;SDS011;26259;50.214;18.620;2023-03-08T00:20:04;35.53;;;19.97;;
22677;SDS011;26259;50.214;18.620;2023-03-08T00:22:37;36.20;;;18.67;;
22677;SDS011;26259;50.214;18.620;2023-03-08T00:25:04;31.50;;;19.10;;
22677;SDS011;26259;50.214;18.620;2023-03-08T00:27:30;29.27;;;20.57;;
22677;SDS011;26259;50.214;18.620;2023-03-08T00:29:56;30.90;;;19.67;;
22677;SDS011;26259;50.214;18.620;2023-03-08T00:32:23;28.50;;;18.27;;
22677;SDS011;26259;50.214;18.620;2023-03-08T00:34:50;30.37;;;18.70;;
22677;SDS011;26259;50.214;18.620;2023-03-08T00:37:16;30.33;;;17.83;;
22677;SDS011;26259;50.214;18.620;2023-03-08T00:39:41;29.27;;;17.20;;
22677;SDS011;26259;50.214;18.620;2023-03-08T00:42:07;27.80;;;17.67;;
22677;SDS011;26259;50.214;18.620;2023-03-08T00:44:33;26.50;;;17.57;;
22677;SDS011;26259;50.214;18.620;2023-03-08T00:46:58;27.63;;;17.27;;
22677;SDS011;26259;50.214;18.620;2023-03-08T00:49:24;31.37;;;18.93;;
22677;SDS011;26259;50.214;18.620;2023-03-08T00:51:50;28.30;;;18.70;;
22677;SDS011;26259;50.214;18.620;2023-03-08T00:54:15;29.33;;;18.43;;
22677;SDS011;26259;50.214;18.620;2023-03-08T00:56:41;28.33;;;18.40;;
22677;SDS011;26259;50.214;18.620;2023-03-08T00:59:07;28.37;;;16.67;;
22677;SDS011;26259;50.214;18.620;2023-03-08T01:01:32;22.10;;;14.17;;
22677;SDS011;26259;50.214;18.620;2023-03-08T01:03:58;21.80;;;13.23;;
22677;SDS011;26259;50.214;18.620;2023-03-08T01:06:25;23.10;;;15.80;;
22677;SDS011;26259;50.214;18.620;2023-03-08T01:08:50;26.77;;;15.67;;
22677;SDS011;26259;50.214;18.620;2023-03-08T01:11:17;26.60;;;17.23;;
22677;SDS011;26259;50.214;18.620;2023-03-08T01:13:45;26.30;;;14.53;;
22677;SDS011;26259;50.214;18.620;2023-03-08T01:16:30;26.27;;;16.47;;
22677;SDS011;26259;50.214;18.620;2023-03-08T01:18:57;23.87;;;15.87;;
22677;SDS011;26259;50.214;18.620;2023-03-08T01:21:24;27.87;;;16.20;;
22677;SDS011;26259;50.214;18.620;2023-03-08T01:23:51;26.10;;;16.47;;
22677;SDS011;26259;50.214;18.620;2023-03-08T01:26:18;29.07;;;16.57;;
22677;SDS011;26259;50.214;18.620;2023-03-08T01:28:46;27.60;;;17.40;;
22677;SDS011;26259;50.214;18.620;2023-03-08T01:31:14;29.70;;;18.27;;
22677;SDS011;26259;50.214;18.620;2023-03-08T01:33:47;27.60;;;16.07;;
22677;SDS011;26259;50.214;18.620;2023-03-08T01:36:14;27.37;;;16.07;;
22677;SDS011;26259;50.214;18.620;2023-03-08T01:38:41;29.67;;;18.17;;
22677;SDS011;26259;50.214;18.620;2023-03-08T01:41:07;27.77;;;17.27;;
22677;SDS011;26259;50.214;18.620;2023-03-08T01:43:37;27.23;;;17.73;;
22677;SDS011;26259;50.214;18.620;2023-03-08T01:48:31;35.07;;;19.37;;
22677;SDS011;26259;50.214;18.620;2023-03-08T01:51:01;31.63;;;19.67;;
22677;SDS011;26259;50.214;18.620;2023-03-08T01:53:29;27.37;;;17.67;;
22677;SDS011;26259;50.214;18.620;2023-03-08T01:55:55;28.07;;;18.43;;
22677;SDS011;26259;50.214;18.620;2023-03-08T01:58:21;29.53;;;18.87;;
22677;SDS011;26259;50.214;18.620;2023-03-08T02:00:47;27.40;;;16.60;;
22677;SDS011;26259;50.214;18.620;2023-03-08T02:03:13;27.20;;;16.63;;
22677;SDS011;26259;50.214;18.620;2023-03-08T02:05:39;26.77;;;15.83;;
22677;SDS011;26259;50.214;18.620;2023-03-08T02:08:07;23.00;;;15.13;;
22677;SDS011;26259;50.214;18.620;2023-03-08T02:10:32;26.00;;;16.33;;
22677;SDS011;26259;50.214;18.620;2023-03-08T02:13:00;24.30;;;13.90;;
22677;SDS011;26259;50.214;18.620;2023-03-08T02:15:28;25.67;;;15.33;;
22677;SDS011;26259;50.214;18.620;2023-03-08T02:17:54;24.60;;;15.67;;
22677;SDS011;26259;50.214;18.620;2023-03-08T02:20:21;21.80;;;14.07;;
22677;SDS011;26259;50.214;18.620;2023-03-08T02:23:05;22.63;;;15.27;;
22677;SDS011;26259;50.214;18.620;2023-03-08T02:25:41;23.57;;;15.10;;
22677;SDS011;26259;50.214;18.620;2023-03-08T02:28:25;27.63;;;15.97;;
22677;SDS011;26259;50.214;18.620;2023-03-08T02:30:52;26.10;;;16.23;;
22677;SDS011;26259;50.214;18.620;2023-03-08T02:33:18;24.47;;;15.00;;
22677;SDS011;26259;50.214;18.620;2023-03-08T02:35:44;23.63;;;14.97;;
22677;SDS011;26259;50.214;18.620;2023-03-08T02:38:10;22.40;;;14.37;;
22677;SDS011;26259;50.214;18.620;2023-03-08T02:40:37;28.53;;;16.97;;
22677;SDS011;26259;50.214;18.620;2023-03-08T02:43:04;22.37;;;15.07;;
22677;SDS011;26259;50.214;18.620;2023-03-08T02:45:30;26.97;;;16.43;;
22677;SDS011;26259;50.214;18.620;2023-03-08T02:47:57;30.80;;;19.23;;
22677;SDS011;26259;50.214;18.620;2023-03-08T02:50:24;25.30;;;16.40;;
22677;SDS011;26259;50.214;18.620;2023-03-08T02:52:49;33.40;;;21.37;;
22677;SDS011;26259;50.214;18.620;2023-03-08T02:55:15;27.53;;;17.60;;
22677;SDS011;26259;50.214;18.620;2023-03-08T02:57:40;29.83;;;17.60;;
22677;SDS011;26259;50.214;18.620;2023-03-08T03:00:06;24.93;;;15.80;;
22677;SDS011;26259;50.214;18.620;2023-03-08T03:02:33;24.40;;;15.23;;
22677;SDS011;26259;50.214;18.620;2023-03-08T03:04:58;25.90;;;15.30;;
22677;SDS011;26259;50.214;18.620;2023-03-08T03:07:24;26.23;;;16.60;;
22677;SDS011;26259;50.214;18.620;2023-03-08T03:09:49;28.77;;;17.60;;
22677;SDS011;26259;50.214;18.620;2023-03-08T03:12:15;27.60;;;16.10;;
22677;SDS011;26259;50.214;18.620;2023-03-08T03:14:41;29.73;;;16.97;;
22677;SDS011;26259;50.214;18.620;2023-03-08T03:17:07;24.57;;;15.87;;
22677;SDS011;26259;50.214;18.620;2023-03-08T03:19:32;27.23;;;15.17;;
22677;SDS011;26259;50.214;18.620;2023-03-08T03:21:58;24.97;;;16.43;;
22677;SDS011;26259;50.214;18.620;2023-03-08T03:24:23;26.70;;;16.13;;
22677;SDS011;26259;50.214;18.620;2023-03-08T03:26:49;24.00;;;14.33;;
22677;SDS011;26259;50.214;18.620;2023-03-08T03:29:16;24.70;;;15.83;;
22677;SDS011;26259;50.214;18.620;2023-03-08T03:31:41;22.30;;;13.40;;
22677;SDS011;26259;50.214;18.620;2023-03-08T03:34:07;26.60;;;16.33;;
22677;SDS011;26259;50.214;18.620;2023-03-08T03:36:33;26.23;;;14.80;;
22677;SDS011;26259;50.214;18.620;2023-03-08T03:38:59;28.03;;;16.13;;
22677;SDS011;26259;50.214;18.620;2023-03-08T03:41:24;31.20;;;16.73;;
22677;SDS011;26259;50.214;18.620;2023-03-08T03:43:50;16.43;;;11.03;;
22677;SDS011;26259;50.214;18.620;2023-03-08T03:46:17;20.60;;;14.27;;
22677;SDS011;26259;50.214;18.620;2023-03-08T03:48:44;26.57;;;14.60;;
22677;SDS011;26259;50.214;18.620;2023-03-08T03:51:11;21.13;;;13.20;;
22677;SDS011;26259;50.214;18.620;2023-03-08T03:53:39;26.40;;;15.47;;
22677;SDS011;26259;50.214;18.620;2023-03-08T03:56:15;20.93;;;13.17;;
22677;SDS011;26259;50.214;18.620;2023-03-08T03:58:42;23.90;;;13.83;;
22677;SDS011;26259;50.214;18.620;2023-03-08T04:01:14;26.30;;;14.93;;
22677;SDS011;26259;50.214;18.620;2023-03-08T04:03:50;20.13;;;12.80;;
22677;SDS011;26259;50.214;18.620;2023-03-08T04:06:20;19.53;;;12.67;;
22677;SDS011;26259;50.214;18.620;2023-03-08T04:08:48;21.13;;;11.70;;
22677;SDS011;26259;50.214;18.620;2023-03-08T04:11:17;20.97;;;13.50;;
22677;SDS011;26259;50.214;18.620;2023-03-08T04:13:44;40.27;;;24.73;;
22677;SDS011;26259;50.214;18.620;2023-03-08T04:18:36;55.87;;;30.13;;
22677;SDS011;26259;50.214;18.620;2023-03-08T04:21:02;39.73;;;30.23;;
22677;SDS011;26259;50.214;18.620;2023-03-08T04:23:28;23.00;;;13.87;;
22677;SDS011;26259;50.214;18.620;2023-03-08T04:25:53;17.77;;;11.43;;
22677;SDS011;26259;50.214;18.620;2023-03-08T04:28:19;17.53;;;11.40;;
22677;SDS011;26259;50.214;18.620;2023-03-08T04:30:44;18.63;;;11.30;;
22677;SDS011;26259;50.214;18.620;2023-03-08T04:33:10;19.27;;;10.30;;
22677;SDS011;26259;50.214;18.620;2023-03-08T04:35:35;14.60;;;9.37;;
22677;SDS011;26259;50.214;18.620;2023-03-08T04:38:01;18.90;;;11.23;;
22677;SDS011;26259;50.214;18.620;2023-03-08T04:40:27;19.33;;;13.20;;
22677;SDS011;26259;50.214;18.620;2023-03-08T04:42:53;22.60;;;15.47;;
22677;SDS011;26259;50.214;18.620;2023-03-08T04:45:19;20.70;;;12.73;;
22677;SDS011;26259;50.214;18.620;2023-03-08T04:47:45;16.53;;;10.73;;
22677;SDS011;26259;50.214;18.620;2023-03-08T04:50:10;17.13;;;10.83;;
22677;SDS011;26259;50.214;18.620;2023-03-08T04:52:37;17.13;;;10.60;;
22677;SDS011;26259;50.214;18.620;2023-03-08T04:55:02;13.60;;;9.60;;
22677;SDS011;26259;50.214;18.620;2023-03-08T04:57:28;17.60;;;10.43;;
22677;SDS011;26259;50.214;18.620;2023-03-08T04:59:54;18.50;;;10.07;;
22677;SDS011;26259;50.214;18.620;2023-03-08T05:02:20;18.60;;;10.60;;
22677;SDS011;26259;50.214;18.620;2023-03-08T05:04:47;16.97;;;10.17;;
22677;SDS011;26259;50.214;18.620;2023-03-08T05:07:12;17.30;;;10.63;;
22677;SDS011;26259;50.214;18.620;2023-03-08T05:09:38;19.57;;;11.50;;
22677;SDS011;26259;50.214;18.620;2023-03-08T05:12:04;20.23;;;12.93;;
22677;SDS011;26259;50.214;18.620;2023-03-08T05:14:30;23.10;;;13.07;;
22677;SDS011;26259;50.214;18.620;2023-03-08T05:16:56;16.80;;;10.07;;
22677;SDS011;26259;50.214;18.620;2023-03-08T05:19:21;19.30;;;10.33;;
22677;SDS011;26259;50.214;18.620;2023-03-08T05:21:47;17.90;;;11.23;;
22677;SDS011;26259;50.214;18.620;2023-03-08T05:24:13;20.57;;;11.43;;
22677;SDS011;26259;50.214;18.620;2023-03-08T05:26:39;17.27;;;11.27;;
22677;SDS011;26259;50.214;18.620;2023-03-08T05:29:04;20.20;;;10.60;;
22677;SDS011;26259;50.214;18.620;2023-03-08T05:31:30;18.87;;;11.37;;
22677;SDS011;26259;50.214;18.620;2023-03-08T05:33:57;21.57;;;11.20;;
22677;SDS011;26259;50.214;18.620;2023-03-08T05:36:22;19.50;;;11.47;;
22677;SDS011;26259;50.214;18.620;2023-03-08T05:38:51;21.97;;;11.07;;
22677;SDS011;26259;50.214;18.620;2023-03-08T05:41:18;19.37;;;11.73;;
22677;SDS011;26259;50.214;18.620;2023-03-08T05:43:44;23.10;;;13.07;;
22677;SDS011;26259;50.214;18.620;2023-03-08T05:46:14;21.70;;;12.37;;
22677;SDS011;26259;50.214;18.620;2023-03-08T05:48:42;22.03;;;12.10;;
22677;SDS011;26259;50.214;18.620;2023-03-08T05:51:09;22.80;;;11.30;;
22677;SDS011;26259;50.214;18.620;2023-03-08T05:53:39;28.93;;;13.10;;
22677;SDS011;26259;50.214;18.620;2023-03-08T05:56:12;35.27;;;25.93;;
22677;SDS011;26259;50.214;18.620;2023-03-08T05:58:39;36.30;;;21.17;;
22677;SDS011;26259;50.214;18.620;2023-03-08T06:01:38;25.43;;;14.20;;
22677;SDS011;26259;50.214;18.620;2023-03-08T06:03:57;28.27;;;16.63;;
22677;SDS011;26259;50.214;18.620;2023-03-08T06:06:23;27.73;;;16.47;;
22677;SDS011;26259;50.214;18.620;2023-03-08T06:08:50;20.70;;;13.33;;
22677;SDS011;26259;50.214;18.620;2023-03-08T06:11:17;22.63;;;14.27;;
22677;SDS011;26259;50.214;18.620;2023-03-08T06:13:43;26.33;;;15.97;;
22677;SDS011;26259;50.214;18.620;2023-03-08T06:16:09;27.00;;;15.67;;
22677;SDS011;26259;50.214;18.620;2023-03-08T06:18:36;25.93;;;14.40;;
22677;SDS011;26259;50.214;18.620;2023-03-08T06:21:07;31.37;;;16.63;;
22677;SDS011;26259;50.214;18.620;2023-03-08T06:23:38;22.77;;;12.67;;
22677;SDS011;26259;50.214;18.620;2023-03-08T06:26:04;27.73;;;13.87;;
22677;SDS011;26259;50.214;18.620;2023-03-08T06:28:31;23.13;;;14.33;;
22677;SDS011;26259;50.214;18.620;2023-03-08T06:30:57;23.17;;;14.10;;
22677;SDS011;26259;50.214;18.620;2023-03-08T06:33:24;23.90;;;13.50;;
22677;SDS011;26259;50.214;18.620;2023-03-08T06:38:21;40.27;;;19.47;;
22677;SDS011;26259;50.214;18.620;2023-03-08T06:40:46;31.03;;;17.20;;
22677;SDS011;26259;50.214;18.620;2023-03-08T06:43:12;27.70;;;16.67;;
22677;SDS011;26259;50.214;18.620;2023-03-08T06:45:37;22.23;;;12.63;;
22677;SDS011;26259;50.214;18.620;2023-03-08T06:48:03;23.57;;;14.00;;
22677;SDS011;26259;50.214;18.620;2023-03-08T06:50:29;20.07;;;11.83;;
22677;SDS011;26259;50.214;18.620;2023-03-08T06:52:54;18.27;;;11.10;;
22677;SDS011;26259;50.214;18.620;2023-03-08T06:55:20;19.47;;;11.73;;
22677;SDS011;26259;50.214;18.620;2023-03-08T06:57:46;18.00;;;11.50;;
22677;SDS011;26259;50.214;18.620;2023-03-08T07:00:12;21.13;;;12.63;;
22677;SDS011;26259;50.214;18.620;2023-03-08T07:02:38;22.47;;;12.80;;
22677;SDS011;26259;50.214;18.620;2023-03-08T07:05:04;22.03;;;13.23;;
22677;SDS011;26259;50.214;18.620;2023-03-08T07:07:30;18.73;;;11.40;;
22677;SDS011;26259;50.214;18.620;2023-03-08T07:09:55;22.93;;;12.10;;
22677;SDS011;26259;50.214;18.620;2023-03-08T07:12:22;18.67;;;11.30;;
22677;SDS011;26259;50.214;18.620;2023-03-08T07:14:50;23.57;;;14.47;;
22677;SDS011;26259;50.214;18.620;2023-03-08T07:17:16;23.60;;;12.73;;
22677;SDS011;26259;50.214;18.620;2023-03-08T07:19:41;20.00;;;11.57;;
22677;SDS011;26259;50.214;18.620;2023-03-08T07:22:07;18.47;;;11.43;;
22677;SDS011;26259;50.214;18.620;2023-03-08T07:24:32;28.23;;;15.57;;
22677;SDS011;26259;50.214;18.620;2023-03-08T07:26:58;21.27;;;12.20;;
22677;SDS011;26259;50.214;18.620;2023-03-08T07:29:23;22.63;;;11.87;;
22677;SDS011;26259;50.214;18.620;2023-03-08T07:31:49;20.63;;;12.53;;
22677;SDS011;26259;50.214;18.620;2023-03-08T07:34:15;22.47;;;12.93;;
22677;SDS011;26259;50.214;18.620;2023-03-08T07:36:40;20.47;;;13.50;;
22677;SDS011;26259;50.214;18.620;2023-03-08T07:39:06;25.40;;;15.87;;
22677;SDS011;26259;50.214;18.620;2023-03-08T07:41:31;21.47;;;16.47;;
22677;SDS011;26259;50.214;18.620;2023-03-08T07:43:58;28.63;;;18.37;;
22677;SDS011;26259;50.214;18.620;2023-03-08T07:46:24;28.20;;;19.47;;
22677;SDS011;26259;50.214;18.620;2023-03-08T07:48:50;25.10;;;17.77;;
22677;SDS011;26259;50.214;18.620;2023-03-08T07:51:17;24.07;;;16.43;;
22677;SDS011;26259;50.214;18.620;2023-03-08T07:53:43;23.60;;;16.93;;
22677;SDS011;26259;50.214;18.620;2023-03-08T07:56:09;23.30;;;16.17;;
22677;SDS011;26259;50.214;18.620;2023-03-08T07:58:35;22.77;;;15.30;;
22677;SDS011;26259;50.214;18.620;2023-03-08T08:01:06;22.97;;;15.33;;
22677;SDS011;26259;50.214;18.620;2023-03-08T08:03:33;22.57;;;14.90;;
22677;SDS011;26259;50.214;18.620;2023-03-08T08:06:00;23.30;;;15.63;;
22677;SDS011;26259;50.214;18.620;2023-03-08T08:08:28;22.30;;;14.97;;
22677;SDS011;26259;50.214;18.620;2023-03-08T08:10:53;21.47;;;13.83;;
22677;SDS011;26259;50.214;18.620;2023-03-08T08:13:19;25.73;;;16.67;;
22677;SDS011;26259;50.214;18.620;2023-03-08T08:15:44;23.17;;;15.07;;
22677;SDS011;26259;50.214;18.620;2023-03-08T08:18:10;19.37;;;14.03;;
22677;SDS011;26259;50.214;18.620;2023-03-08T08:20:36;20.03;;;13.90;;
22677;SDS011;26259;50.214;18.620;2023-03-08T08:23:03;20.13;;;13.60;;
22677;SDS011;26259;50.214;18.620;2023-03-08T08:25:30;18.33;;;13.33;;
22677;SDS011;26259;50.214;18.620;2023-03-08T08:27:56;22.13;;;15.17;;
22677;SDS011;26259;50.214;18.620;2023-03-08T08:30:22;18.80;;;13.37;;
22677;SDS011;26259;50.214;18.620;2023-03-08T08:32:47;19.77;;;14.00;;
22677;SDS011;26259;50.214;18.620;2023-03-08T08:35:13;20.13;;;13.97;;
22677;SDS011;26259;50.214;18.620;2023-03-08T08:37:39;20.83;;;14.47;;
22677;SDS011;26259;50.214;18.620;2023-03-08T08:40:05;20.57;;;13.87;;
22677;SDS011;26259;50.214;18.620;2023-03-08T08:42:34;21.47;;;14.37;;
22677;SDS011;26259;50.214;18.620;2023-03-08T08:45:00;19.70;;;13.70;;
22677;SDS011;26259;50.214;18.620;2023-03-08T08:47:27;18.37;;;13.20;;
22677;SDS011;26259;50.214;18.620;2023-03-08T08:49:53;17.63;;;13.23;;
22677;SDS011;26259;50.214;18.620;2023-03-08T08:52:18;20.30;;;14.07;;
22677;SDS011;26259;50.214;18.620;2023-03-08T08:54:44;22.77;;;14.63;;
22677;SDS011;26259;50.214;18.620;2023-03-08T08:57:09;19.43;;;14.47;;
22677;SDS011;26259;50.214;18.620;2023-03-08T08:59:35;23.63;;;15.30;;
22677;SDS011;26259;50.214;18.620;2023-03-08T09:02:00;19.70;;;14.20;;
22677;SDS011;26259;50.214;18.620;2023-03-08T09:04:26;23.13;;;15.07;;
22677;SDS011;26259;50.214;18.620;2023-03-08T09:06:52;21.83;;;14.73;;
22677;SDS011;26259;50.214;18.620;2023-03-08T09:09:18;17.87;;;12.80;;
22677;SDS011;26259;50.214;18.620;2023-03-08T09:11:44;20.37;;;13.90;;
22677;SDS011;26259;50.214;18.620;2023-03-08T09:14:12;17.07;;;13.30;;
22677;SDS011;26259;50.214;18.620;2023-03-08T09:16:38;18.23;;;14.17;;
22677;SDS011;26259;50.214;18.620;2023-03-08T09:19:04;18.80;;;13.10;;
22677;SDS011;26259;50.214;18.620;2023-03-08T09:21:31;18.53;;;13.27;;
22677;SDS011;26259;50.214;18.620;2023-03-08T09:23:58;20.93;;;14.70;;
22677;SDS011;26259;50.214;18.620;2023-03-08T09:26:25;20.47;;;13.40;;
22677;SDS011;26259;50.214;18.620;2023-03-08T09:28:53;21.60;;;14.30;;
22677;SDS011;26259;50.214;18.620;2023-03-08T09:31:18;20.23;;;13.83;;
22677;SDS011;26259;50.214;18.620;2023-03-08T09:33:45;20.10;;;14.27;;
22677;SDS011;26259;50.214;18.620;2023-03-08T09:36:12;20.33;;;14.40;;
22677;SDS011;26259;50.214;18.620;2023-03-08T09:38:38;19.10;;;13.77;;
22677;SDS011;26259;50.214;18.620;2023-03-08T09:41:14;20.97;;;13.80;;
22677;SDS011;26259;50.214;18.620;2023-03-08T09:46:24;19.23;;;13.17;;
22677;SDS011;26259;50.214;18.620;2023-03-08T09:48:54;18.27;;;12.93;;
22677;SDS011;26259;50.214;18.620;2023-03-08T09:51:33;15.50;;;11.20;;
22677;SDS011;26259;50.214;18.620;2023-03-08T09:54:03;18.40;;;12.93;;
22677;SDS011;26259;50.214;18.620;2023-03-08T09:56:35;17.77;;;12.23;;
22677;SDS011;26259;50.214;18.620;2023-03-08T10:01:34;20.17;;;12.03;;
22677;SDS011;26259;50.214;18.620;2023-03-08T10:04:27;16.70;;;11.27;;
22677;SDS011;26259;50.214;18.620;2023-03-08T10:07:23;15.10;;;10.13;;
22677;SDS011;26259;50.214;18.620;2023-03-08T10:13:06;17.33;;;11.60;;
22677;SDS011;26259;50.214;18.620;2023-03-08T10:15:54;17.60;;;11.83;;
22677;SDS011;26259;50.214;18.620;2023-03-08T10:18:33;18.23;;;10.13;;
22677;SDS011;26259;50.214;18.620;2023-03-08T10:21:04;16.23;;;10.07;;
22677;SDS011;26259;50.214;18.620;2023-03-08T10:23:33;14.87;;;10.43;;
22677;SDS011;26259;50.214;18.620;2023-03-08T10:26:04;15.23;;;10.43;;
22677;SDS011;26259;50.214;18.620;2023-03-08T10:28:33;15.90;;;11.03;;
22677;SDS011;26259;50.214;18.620;2023-03-08T10:31:00;12.33;;;8.17;;
22677;SDS011;26259;50.214;18.620;2023-03-08T10:33:32;17.00;;;10.10;;
22677;SDS011;26259;50.214;18.620;2023-03-08T10:36:05;16.40;;;10.37;;
22677;SDS011;26259;50.214;18.620;2023-03-08T10:38:36;13.20;;;9.63;;
22677;SDS011;26259;50.214;18.620;2023-03-08T10:41:04;13.73;;;9.73;;
22677;SDS011;26259;50.214;18.620;2023-03-08T10:43:47;14.13;;;9.07;;
22677;SDS011;26259;50.214;18.620;2023-03-08T10:48:43;16.33;;;9.40;;
22677;SDS011;26259;50.214;18.620;2023-03-08T10:56:23;19.40;;;12.13;;
22677;SDS011;26259;50.214;18.620;2023-03-08T10:58:52;17.63;;;12.73;;
22677;SDS011;26259;50.214;18.620;2023-03-08T11:01:30;19.80;;;11.80;;
22677;SDS011;26259;50.214;18.620;2023-03-08T11:04:01;21.90;;;12.70;;
22677;SDS011;26259;50.214;18.620;2023-03-08T11:06:29;18.97;;;10.40;;
22677;SDS011;26259;50.214;18.620;2023-03-08T11:08:56;18.33;;;10.00;;
22677;SDS011;26259;50.214;18.620;2023-03-08T11:11:24;12.63;;;8.73;;
22677;SDS011;26259;50.214;18.620;2023-03-08T11:13:50;14.70;;;9.27;;
22677;SDS011;26259;50.214;18.620;2023-03-08T11:21:37;12.03;;;8.87;;
22677;SDS011;26259;50.214;18.620;2023-03-08T11:32:14;11.67;;;8.00;;
22677;SDS011;26259;50.214;18.620;2023-03-08T11:37:24;14.37;;;8.93;;
22677;SDS011;26259;50.214;18.620;2023-03-08T11:53:59;12.07;;;7.63;;
22677;SDS011;26259;50.214;18.620;2023-03-08T11:56:44;13.17;;;7.47;;
22677;SDS011;26259;50.214;18.620;2023-03-08T12:02:02;18.80;;;7.60;;
22677;SDS011;26259;50.214;18.620;2023-03-08T12:04:30;12.00;;;8.53;;
22677;SDS011;26259;50.214;18.620;2023-03-08T12:07:01;11.77;;;7.07;;
22677;SDS011;26259;50.214;18.620;2023-03-08T12:09:58;9.57;;;6.87;;
22677;SDS011;26259;50.214;18.620;2023-03-08T12:12:34;12.90;;;6.17;;
22677;SDS011;26259;50.214;18.620;2023-03-08T12:15:26;9.47;;;6.27;;
22677;SDS011;26259;50.214;18.620;2023-03-08T12:18:12;11.30;;;6.53;;
22677;SDS011;26259;50.214;18.620;2023-03-08T12:20:59;8.30;;;5.43;;
22677;SDS011;26259;50.214;18.620;2023-03-08T12:23:54;11.47;;;7.60;;
22677;SDS011;26259;50.214;18.620;2023-03-08T12:26:45;9.13;;;6.77;;
22677;SDS011;26259;50.214;18.620;2023-03-08T12:32:16;13.77;;;8.83;;
22677;SDS011;26259;50.214;18.620;2023-03-08T12:34:44;11.73;;;7.43;;
22677;SDS011;26259;50.214;18.620;2023-03-08T12:37:24;11.70;;;7.70;;
22677;SDS011;26259;50.214;18.620;2023-03-08T12:39:59;11.40;;;8.30;;
22677;SDS011;26259;50.214;18.620;2023-03-08T12:42:29;13.07;;;8.10;;
22677;SDS011;26259;50.214;18.620;2023-03-08T12:51:00;16.83;;;8.87;;
22677;SDS011;26259;50.214;18.620;2023-03-08T12:53:54;14.13;;;7.93;;
22677;SDS011;26259;50.214;18.620;2023-03-08T12:56:30;10.70;;;7.60;;
22677;SDS011;26259;50.214;18.620;2023-03-08T13:01:40;12.30;;;8.27;;
22677;SDS011;26259;50.214;18.620;2023-03-08T13:09:26;13.37;;;8.47;;
22677;SDS011;26259;50.214;18.620;2023-03-08T13:17:34;22.97;;;15.97;;
22677;SDS011;26259;50.214;18.620;2023-03-08T13:20:09;20.37;;;11.63;;
22677;SDS011;26259;50.214;18.620;2023-03-08T13:25:10;10.53;;;8.03;;
22677;SDS011;26259;50.214;18.620;2023-03-08T13:30:36;16.33;;;8.50;;
22677;SDS011;26259;50.214;18.620;2023-03-08T13:33:08;14.17;;;8.57;;
22677;SDS011;26259;50.214;18.620;2023-03-08T13:35:52;17.30;;;9.70;;
22677;SDS011;26259;50.214;18.620;2023-03-08T13:38:19;15.30;;;7.10;;
22677;SDS011;26259;50.214;18.620;2023-03-08T13:40:53;11.40;;;7.43;;
22677;SDS011;26259;50.214;18.620;2023-03-08T13:43:21;11.70;;;7.30;;
22677;SDS011;26259;50.214;18.620;2023-03-08T13:45:48;13.53;;;7.93;;
22677;SDS011;26259;50.214;18.620;2023-03-08T13:48:17;10.50;;;7.93;;
22677;SDS011;26259;50.214;18.620;2023-03-08T13:50:46;14.40;;;6.90;;
22677;SDS011;26259;50.214;18.620;2023-03-08T13:53:19;13.80;;;6.73;;
22677;SDS011;26259;50.214;18.620;2023-03-08T13:55:47;8.27;;;5.93;;
22677;SDS011;26259;50.214;18.620;2023-03-08T13:58:26;7.80;;;5.73;;
22677;SDS011;26259;50.214;18.620;2023-03-08T14:01:12;10.17;;;6.03;;
22677;SDS011;26259;50.214;18.620;2023-03-08T14:03:43;8.77;;;6.17;;
22677;SDS011;26259;50.214;18.620;2023-03-08T14:06:16;14.03;;;6.80;;
22677;SDS011;26259;50.214;18.620;2023-03-08T14:08:48;11.37;;;7.30;;
22677;SDS011;26259;50.214;18.620;2023-03-08T14:11:25;9.20;;;6.67;;
22677;SDS011;26259;50.214;18.620;2023-03-08T14:13:53;18.83;;;10.23;;
22677;SDS011;26259;50.214;18.620;2023-03-08T14:19:17;14.00;;;10.83;;
22677;SDS011;26259;50.214;18.620;2023-03-08T14:21:48;11.87;;;7.77;;
22677;SDS011;26259;50.214;18.620;2023-03-08T14:24:21;16.97;;;9.67;;
22677;SDS011;26259;50.214;18.620;2023-03-08T14:26:56;16.13;;;7.80;;
22677;SDS011;26259;50.214;18.620;2023-03-08T14:29:31;13.97;;;8.27;;
22677;SDS011;26259;50.214;18.620;2023-03-08T14:32:03;11.57;;;7.33;;
22677;SDS011;26259;50.214;18.620;2023-03-08T14:34:47;16.37;;;8.23;;
22677;SDS011;26259;50.214;18.620;2023-03-08T14:39:55;17.73;;;8.40;;
22677;SDS011;26259;50.214;18.620;2023-03-08T14:42:48;20.03;;;9.90;;
22677;SDS011;26259;50.214;18.620;2023-03-08T14:45:24;23.93;;;13.33;;
22677;SDS011;26259;50.214;18.620;2023-03-08T14:47:54;18.40;;;10.37;;
22677;SDS011;26259;50.214;18.620;2023-03-08T14:52:50;12.30;;;7.17;;
22677;SDS011;26259;50.214;18.620;2023-03-08T14:55:21;16.13;;;9.27;;
22677;SDS011;26259;50.214;18.620;2023-03-08T14:57:50;12.67;;;7.27;;
22677;SDS011;26259;50.214;18.620;2023-03-08T15:00:18;10.17;;;6.83;;
22677;SDS011;26259;50.214;18.620;2023-03-08T15:02:45;20.47;;;8.43;;
22677;SDS011;26259;50.214;18.620;2023-03-08T15:05:11;14.57;;;8.87;;
22677;SDS011;26259;50.214;18.620;2023-03-08T15:07:41;21.80;;;11.53;;
22677;SDS011;26259;50.214;18.620;2023-03-08T15:10:21;19.07;;;10.47;;
22677;SDS011;26259;50.214;18.620;2023-03-08T15:12:51;9.87;;;5.93;;
22677;SDS011;26259;50.214;18.620;2023-03-08T15:15:16;9.30;;;6.87;;
22677;SDS011;26259;50.214;18.620;2023-03-08T15:17:42;13.33;;;7.70;;
22677;SDS011;26259;50.214;18.620;2023-03-08T15:20:08;9.57;;;6.50;;
22677;SDS011;26259;50.214;18.620;2023-03-08T15:22:37;11.87;;;6.60;;
22677;SDS011;26259;50.214;18.620;2023-03-08T15:25:13;12.97;;;7.30;;
22677;SDS011;26259;50.214;18.620;2023-03-08T15:27:40;18.00;;;9.07;;
22677;SDS011;26259;50.214;18.620;2023-03-08T15:30:11;11.67;;;7.23;;
22677;SDS011;26259;50.214;18.620;2023-03-08T15:32:42;18.37;;;10.83;;
22677;SDS011;26259;50.214;18.620;2023-03-08T15:35:07;14.93;;;7.90;;
22677;SDS011;26259;50.214;18.620;2023-03-08T15:37:33;20.10;;;11.53;;
22677;SDS011;26259;50.214;18.620;2023-03-08T15:39:59;15.80;;;9.53;;
22677;SDS011;26259;50.214;18.620;2023-03-08T15:42:25;13.30;;;8.40;;
22677;SDS011;26259;50.214;18.620;2023-03-08T15:44:50;13.07;;;6.57;;
22677;SDS011;26259;50.214;18.620;2023-03-08T15:47:16;11.27;;;5.90;;
22677;SDS011;26259;50.214;18.620;2023-03-08T15:49:42;9.63;;;7.10;;
22677;SDS011;26259;50.214;18.620;2023-03-08T15:52:09;17.40;;;9.07;;